createdAt,value
2022-11-22T08:03:51.603Z,10.67
2022-11-22T08:05:59.977Z,9.80
2022-11-22T08:08:02.258Z,9.65
2022-11-22T08:10:04.940Z,9.73
2022-11-22T08:12:07.535Z,10.10
2022-11-22T08:14:10.908Z,9.00
2022-11-22T08:16:15.350Z,10.25
2022-11-22T08:18:18.082Z,11.30
2022-11-22T08:20:20.343Z,10.75
2022-11-22T08:22:22.624Z,8.98
2022-11-22T08:24:25.465Z,12.88
2022-11-22T08:26:27.782Z,10.88
2022-11-22T08:28:30.098Z,8.10
2022-11-22T08:30:32.607Z,8.38
2022-11-22T08:32:34.885Z,8.18
2022-11-22T08:34:38.200Z,11.32
2022-11-22T08:36:41.699Z,9.05
2022-11-22T08:38:44.079Z,14.45
2022-11-22T08:40:46.455Z,11.38
2022-11-22T08:42:49.824Z,11.45
2022-11-22T08:44:52.234Z,8.38
2022-11-22T08:46:54.509Z,8.77
2022-11-22T08:48:57.082Z,8.23
2022-11-22T08:51:02.259Z,9.30
2022-11-22T08:53:04.530Z,10.77
2022-11-22T08:55:07.718Z,8.82
2022-11-22T08:57:09.984Z,9.45
2022-11-22T08:59:12.383Z,8.80
2022-11-22T09:01:17.165Z,8.32
2022-11-22T09:03:19.449Z,8.98
2022-11-22T09:05:21.683Z,9.75
2022-11-22T09:09:46.676Z,9.73
2022-11-22T09:11:49.174Z,9.95
2022-11-22T09:13:51.732Z,9.45
2022-11-22T09:15:54.083Z,11.43
2022-11-22T09:18:03.438Z,9.10
2022-11-22T09:20:07.173Z,9.45
2022-11-22T09:22:09.578Z,9.70
2022-11-22T09:24:11.792Z,9.38
2022-11-22T09:26:17.098Z,9.75
2022-11-22T09:28:19.303Z,10.40
2022-11-22T09:30:21.743Z,10.50
2022-11-22T09:32:28.106Z,10.13
2022-11-22T09:34:32.974Z,10.45
2022-11-22T09:36:35.270Z,11.38
2022-11-22T09:38:38.658Z,12.65
2022-11-22T09:40:48.959Z,12.18
2022-11-22T09:43:09.210Z,11.38
2022-11-22T09:45:18.027Z,13.10
2022-11-22T09:47:44.345Z,10.88
2022-11-22T09:50:15.145Z,10.63
2022-11-22T09:52:27.952Z,9.63
2022-11-22T09:54:47.412Z,10.48
2022-11-22T09:56:54.312Z,9.75
2022-11-22T09:59:07.044Z,10.15
2022-11-22T10:01:39.116Z,10.23
2022-11-22T10:03:52.186Z,9.23
2022-11-22T10:05:58.366Z,9.90
2022-11-22T10:08:21.639Z,10.18
2022-11-22T10:10:35.320Z,9.80
2022-11-22T10:12:56.291Z,11.30
2022-11-22T10:15:20.114Z,11.68
2022-11-22T10:17:34.895Z,11.98
2022-11-22T10:19:51.467Z,11.07
2022-11-22T10:21:53.721Z,11.98
2022-11-22T10:23:56.479Z,11.20
2022-11-22T10:26:17.534Z,11.43
2022-11-22T10:28:25.871Z,11.38
2022-11-22T10:30:39.386Z,12.20
2022-11-22T10:33:08.024Z,11.23
2022-11-22T10:35:29.441Z,10.77
2022-11-22T10:37:44.478Z,11.30
2022-11-22T10:40:01.383Z,11.15
2022-11-22T10:42:40.320Z,13.62
2022-11-22T10:44:48.838Z,10.85
2022-11-22T10:46:59.063Z,11.10
2022-11-22T10:49:24.374Z,11.10
2022-11-22T10:51:49.246Z,11.52
2022-11-22T10:54:13.257Z,11.48
2022-11-22T10:56:43.740Z,11.93
2022-11-22T10:59:00.795Z,13.38
2022-11-22T11:01:33.586Z,12.50
2022-11-22T11:03:40.662Z,12.93
2022-11-22T11:09:02.674Z,12.13
2022-11-22T11:11:01.922Z,12.35
2022-11-22T11:13:34.943Z,11.80
2022-11-22T11:15:51.354Z,12.35
2022-11-22T11:18:15.349Z,12.90
2022-11-22T11:20:26.222Z,12.35
2022-11-22T11:23:06.587Z,12.18
2022-11-22T11:24:54.828Z,11.20
2022-11-22T11:26:59.521Z,11.77
2022-11-22T11:29:24.779Z,12.95
2022-11-22T11:31:42.868Z,11.20
2022-11-22T11:33:46.848Z,12.27
2022-11-22T11:35:52.262Z,11.25
2022-11-22T11:37:56.344Z,12.93
2022-11-22T11:39:58.744Z,11.43
2022-11-22T11:42:20.153Z,13.02
2022-11-22T11:44:33.335Z,13.50
2022-11-22T11:46:41.715Z,12.00
2022-11-22T11:48:44.410Z,13.35
2022-11-22T11:50:46.984Z,13.20
2022-11-22T11:52:54.115Z,12.82
2022-11-22T11:54:58.983Z,14.07
2022-11-22T11:57:05.595Z,14.35
2022-11-22T11:59:14.114Z,14.15
2022-11-22T12:01:20.567Z,13.00
2022-11-22T12:03:25.016Z,14.50
2022-11-22T12:05:30.695Z,14.02
2022-11-22T12:07:35.941Z,14.55
2022-11-22T12:09:44.774Z,13.20
2022-11-22T12:11:52.486Z,13.95
2022-11-22T12:16:33.858Z,14.98
2022-11-22T12:18:51.434Z,13.55
2022-11-22T12:21:05.575Z,14.77
2022-11-22T12:23:33.995Z,14.43
2022-11-22T12:25:37.932Z,13.55
2022-11-22T12:27:40.467Z,15.85
2022-11-22T12:29:46.433Z,12.95
2022-11-22T12:31:53.055Z,14.48
2022-11-22T12:34:16.707Z,14.57
2022-11-22T12:36:41.244Z,14.43
2022-11-22T12:38:46.751Z,14.95
2022-11-22T12:40:52.954Z,12.75
2022-11-22T12:43:03.011Z,13.27
2022-11-22T12:45:11.773Z,14.52
2022-11-22T12:47:19.516Z,15.55
2022-11-22T12:49:44.759Z,16.42
2022-11-22T12:51:52.496Z,14.15
2022-11-22T12:54:01.039Z,13.80
2022-11-22T12:56:28.388Z,12.82
2022-11-22T12:58:41.217Z,14.77
2022-11-22T13:01:03.379Z,12.90
2022-11-22T13:03:13.987Z,13.50
2022-11-22T13:05:23.800Z,13.02
2022-11-22T13:07:35.415Z,14.07
2022-11-22T13:09:44.628Z,12.23
2022-11-22T13:11:54.497Z,14.98
2022-11-22T13:14:05.159Z,14.02
2022-11-22T13:16:10.449Z,13.93
2022-11-22T13:18:16.882Z,12.52
2022-11-22T13:20:26.913Z,12.13
2022-11-22T13:23:10.069Z,12.15
2022-11-22T13:25:33.519Z,11.35
2022-11-22T13:27:44.872Z,11.77
2022-11-22T13:32:04.272Z,11.18
2022-11-22T13:34:25.839Z,11.25
2022-11-22T13:36:28.292Z,10.55
2022-11-22T13:38:30.859Z,11.65
2022-11-22T13:40:41.439Z,10.77
2022-11-22T13:42:43.698Z,10.48
2022-11-22T13:44:57.719Z,11.27
2022-11-22T13:47:03.410Z,10.55
2022-11-22T13:49:15.725Z,10.40
2022-11-22T13:51:53.469Z,9.57
2022-11-22T13:54:34.456Z,10.25
2022-11-22T13:56:36.718Z,10.32
2022-11-22T13:58:38.884Z,11.40
2022-11-22T14:00:41.782Z,10.88
2022-11-22T14:02:50.977Z,9.55
2022-11-22T14:04:55.981Z,10.60
2022-11-22T14:07:07.358Z,12.27
2022-11-22T14:09:26.482Z,9.95
2022-11-22T14:11:52.025Z,10.43
2022-11-22T14:14:16.227Z,13.25
2022-11-22T14:16:38.481Z,8.32
2022-11-22T14:18:59.601Z,9.70
2022-11-22T14:23:18.757Z,9.35
2022-11-22T14:25:59.460Z,9.57
2022-11-22T14:28:04.448Z,10.15
2022-11-22T14:30:21.829Z,10.50
2022-11-22T14:32:26.003Z,9.32
2022-11-22T14:34:30.719Z,9.57
2022-11-22T14:36:33.392Z,10.43
2022-11-22T14:38:40.364Z,10.70
2022-11-22T14:40:42.735Z,10.43
2022-11-22T14:42:47.480Z,10.25
2022-11-22T14:44:52.273Z,10.32
2022-11-22T14:47:14.773Z,9.82
2022-11-22T14:49:30.578Z,11.25
2022-11-22T14:51:36.333Z,12.80
2022-11-22T14:53:45.768Z,12.85
2022-11-22T14:55:51.201Z,10.50
2022-11-22T14:58:06.537Z,10.43
2022-11-22T15:00:23.848Z,11.12
2022-11-22T15:02:48.045Z,10.98
2022-11-22T15:09:15.783Z,10.65
2022-11-22T15:09:16.598Z,11.73
2022-11-22T15:10:33.905Z,10.27
2022-11-22T15:13:08.071Z,10.57
2022-11-22T15:57:32.234Z,9.98
2022-11-22T15:59:40.247Z,10.95
2022-11-22T16:01:44.218Z,10.57
2022-11-22T16:03:54.283Z,10.48
2022-11-22T16:06:10.755Z,10.90
2022-11-22T16:08:15.393Z,10.30
2022-11-22T16:10:37.856Z,9.85
2022-11-22T16:12:40.191Z,10.32
2022-11-22T16:14:48.707Z,9.93
2022-11-22T16:16:51.403Z,11.27
2022-11-22T16:18:54.459Z,13.18
2022-11-22T16:21:11.997Z,11.20
2022-11-22T16:23:17.647Z,11.43
2022-11-22T16:25:31.101Z,10.55
2022-11-22T16:27:33.877Z,11.07
2022-11-22T16:29:37.906Z,11.10
2022-11-22T16:31:41.103Z,10.43
2022-11-22T16:33:44.587Z,11.02
2022-11-22T16:35:47.233Z,11.48
2022-11-22T16:37:49.652Z,10.77
2022-11-22T16:39:52.077Z,11.12
2022-11-22T16:41:54.909Z,9.10
2022-11-22T16:44:02.539Z,10.55
2022-11-22T16:46:04.920Z,10.07
2022-11-22T16:48:35.596Z,10.23
2022-11-22T16:50:39.344Z,10.60
2022-11-22T16:52:45.209Z,11.30
2022-11-22T16:54:48.242Z,10.85
2022-11-22T16:56:50.960Z,11.55
2022-11-22T16:58:56.586Z,10.30
2022-11-22T17:00:59.771Z,11.18
2022-11-22T17:03:04.200Z,10.90
2022-11-22T17:05:08.333Z,9.70
2022-11-22T17:07:12.796Z,9.23
2022-11-22T17:09:15.160Z,10.15
2022-11-22T17:11:20.379Z,9.75
2022-11-22T17:13:28.916Z,9.77
2022-11-22T17:15:32.547Z,10.48
2022-11-22T17:17:35.165Z,9.70
2022-11-22T17:19:55.758Z,9.63
2022-11-22T17:21:58.347Z,9.73
2022-11-22T17:24:26.017Z,9.02
2022-11-22T17:26:29.699Z,9.45
2022-11-22T17:28:32.959Z,9.90
2022-11-22T17:30:35.754Z,10.75
2022-11-22T17:32:40.280Z,11.48
2022-11-22T17:34:42.888Z,10.23
2022-11-22T17:36:45.894Z,9.20
2022-11-22T17:38:48.903Z,16.08
2022-11-22T17:40:59.130Z,10.77
2022-11-22T17:43:02.247Z,12.17
2022-11-22T17:45:05.277Z,9.88
2022-11-22T17:47:09.249Z,11.10
2022-11-22T17:49:15.709Z,12.00
2022-11-22T17:51:19.586Z,9.68
2022-11-22T17:53:22.262Z,11.90
2022-11-22T17:55:32.772Z,11.60
2022-11-22T17:57:45.513Z,11.05
2022-11-22T17:59:48.207Z,10.70
2022-11-22T18:01:51.290Z,11.25
2022-11-22T18:03:54.299Z,10.27
2022-11-22T18:05:57.149Z,10.65
2022-11-22T18:07:59.940Z,10.50
2022-11-22T18:10:03.215Z,11.52
2022-11-22T18:12:05.891Z,10.98
2022-11-22T18:14:10.538Z,10.20
2022-11-22T18:16:15.937Z,10.27
2022-11-22T18:18:54.503Z,9.80
2022-11-22T18:20:55.816Z,9.85
2022-11-22T18:22:58.394Z,12.45
2022-11-22T18:25:01.622Z,10.13
2022-11-22T18:27:04.744Z,9.73
2022-11-22T18:29:40.726Z,10.23
2022-11-22T18:31:50.799Z,8.90
2022-11-22T18:33:54.935Z,9.77
2022-11-22T18:36:03.052Z,8.95
2022-11-22T18:38:06.137Z,10.52
2022-11-22T18:40:11.397Z,8.93
2022-11-22T18:42:16.796Z,10.07
2022-11-22T18:44:19.642Z,11.05
2022-11-22T18:46:22.374Z,10.48
2022-11-22T18:48:26.384Z,10.52
2022-11-22T18:50:29.073Z,10.40
2022-11-22T18:52:34.971Z,9.77
2022-11-22T18:54:38.560Z,10.50
2022-11-22T18:56:41.217Z,9.88
2022-11-22T18:58:44.179Z,11.52
2022-11-22T19:00:47.472Z,10.65
2022-11-22T19:02:50.939Z,9.50
2022-11-22T19:04:54.368Z,10.07
2022-11-22T19:07:01.427Z,9.40
2022-11-22T19:09:04.170Z,10.13
2022-11-22T19:11:07.637Z,10.73
2022-11-22T19:13:10.887Z,10.10
2022-11-22T19:15:13.674Z,9.88
2022-11-22T19:17:21.670Z,9.18
2022-11-22T19:19:25.668Z,9.70
2022-11-22T19:21:29.616Z,9.90
2022-11-22T19:23:33.466Z,10.70
2022-11-22T19:25:36.065Z,8.68
2022-11-22T19:27:38.751Z,9.45
2022-11-22T19:29:41.176Z,9.05
2022-11-22T19:31:44.417Z,14.43
2022-11-22T19:33:47.046Z,10.55
2022-11-22T19:35:59.327Z,10.45
2022-11-22T19:38:02.600Z,8.90
2022-11-22T19:40:06.002Z,10.32
2022-11-22T19:42:08.815Z,9.77
2022-11-22T19:44:12.670Z,9.23
2022-11-22T19:46:16.000Z,9.20
2022-11-22T19:48:19.422Z,8.82
2022-11-22T19:50:22.563Z,9.25
2022-11-22T19:52:25.624Z,9.88
2022-11-22T19:54:28.361Z,9.00
2022-11-22T19:56:36.379Z,9.57
2022-11-22T19:58:40.005Z,10.45
2022-11-22T20:00:42.855Z,9.20
2022-11-22T20:02:45.443Z,9.52
2022-11-22T20:04:47.916Z,8.98
2022-11-22T20:06:50.671Z,9.48
2022-11-22T20:08:54.312Z,9.23
2022-11-22T20:11:01.374Z,15.95
2022-11-22T20:13:07.930Z,8.93
2022-11-22T20:15:13.534Z,10.52
2022-11-22T20:17:16.322Z,10.43
2022-11-22T20:19:19.084Z,9.13
2022-11-22T20:21:23.237Z,8.85
2022-11-22T20:23:25.979Z,10.43
2022-11-22T20:25:28.801Z,9.57
2022-11-22T20:27:31.935Z,10.30
2022-11-22T20:29:34.645Z,9.38
2022-11-22T20:31:39.013Z,8.75
2022-11-22T20:33:47.677Z,8.80
2022-11-22T20:35:50.502Z,8.50
2022-11-22T20:37:52.776Z,8.68
2022-11-22T20:39:55.682Z,8.70
2022-11-22T20:42:32.094Z,9.43
2022-11-22T20:44:27.367Z,9.18
2022-11-22T20:46:33.095Z,8.07
2022-11-22T20:48:36.981Z,8.57
2022-11-22T20:50:39.674Z,9.95
2022-11-22T20:52:42.668Z,9.00
2022-11-22T20:54:47.938Z,9.38
2022-11-22T20:56:50.928Z,9.35
2022-11-22T20:58:54.559Z,9.45
2022-11-22T21:00:57.607Z,9.57
2022-11-22T21:03:00.506Z,9.20
2022-11-22T21:05:03.544Z,8.77
2022-11-22T21:07:05.949Z,8.70
2022-11-22T21:09:08.707Z,9.38
2022-11-22T21:11:21.873Z,8.45
2022-11-22T21:13:24.107Z,9.52
2022-11-22T21:15:26.343Z,9.50
2022-11-22T21:17:45.534Z,8.55
2022-11-22T21:19:51.363Z,8.50
2022-11-22T21:21:53.882Z,9.30
2022-11-22T21:23:59.657Z,8.73
2022-11-22T21:26:02.131Z,7.85
2022-11-22T21:28:04.540Z,7.35
2022-11-22T21:30:07.646Z,7.50
2022-11-22T21:32:09.904Z,7.97
2022-11-22T21:34:12.642Z,7.85
2022-11-22T21:36:15.412Z,7.55
2022-11-22T21:38:19.020Z,7.35
2022-11-22T21:40:21.286Z,7.70
2022-11-22T21:42:23.769Z,10.52
2022-11-22T21:44:26.007Z,8.07
2022-11-22T21:46:28.193Z,8.15
2022-11-22T21:48:30.823Z,7.18
2022-11-22T21:50:33.108Z,8.82
2022-11-22T21:52:35.363Z,8.02
2022-11-22T21:54:40.788Z,7.53
2022-11-22T21:56:43.034Z,8.30
2022-11-22T21:58:45.284Z,8.93
2022-11-22T22:00:49.432Z,8.43
2022-11-22T22:02:51.904Z,7.75
2022-11-22T22:04:54.114Z,8.45
2022-11-22T22:06:56.484Z,7.72
2022-11-22T22:09:00.026Z,7.25
2022-11-22T22:11:05.139Z,7.30
2022-11-22T22:13:07.624Z,7.05
2022-11-22T22:15:12.358Z,7.05
2022-11-22T22:17:14.640Z,6.90
2022-11-22T22:19:16.817Z,7.87
2022-11-22T22:21:20.165Z,6.12
2022-11-22T22:23:24.340Z,7.70
2022-11-22T22:25:26.631Z,8.35
2022-11-22T22:27:31.603Z,8.10
2022-11-22T22:29:33.952Z,7.32
2022-11-22T22:31:36.213Z,8.13
2022-11-22T22:33:41.067Z,7.68
2022-11-22T22:35:43.276Z,8.05
2022-11-22T22:37:45.790Z,8.57
2022-11-22T22:39:49.248Z,8.43
2022-11-22T22:41:53.824Z,7.57
2022-11-22T22:43:56.051Z,9.25
2022-11-22T22:46:10.959Z,9.02
2022-11-22T22:48:13.172Z,9.15
2022-11-22T22:50:15.787Z,7.93
2022-11-22T22:52:18.251Z,8.50
2022-11-22T22:54:20.911Z,9.13
2022-11-22T22:56:24.722Z,8.80
2022-11-22T22:58:27.589Z,8.57
2022-11-22T23:00:29.930Z,9.10
2022-11-22T23:02:32.633Z,9.25
2022-11-22T23:04:35.107Z,8.35
2022-11-22T23:06:39.345Z,9.35
2022-11-22T23:08:44.963Z,9.75
2022-11-22T23:10:47.464Z,8.00
2022-11-22T23:12:49.733Z,8.07
2022-11-22T23:14:51.976Z,9.02
2022-11-22T23:16:58.007Z,8.75
2022-11-22T23:19:00.877Z,8.88
2022-11-22T23:21:04.874Z,9.20
